TimeMST,TemperatureF,Dew PointF,Humidity,Sea Level PressureIn,VisibilityMPH,Wind Direction,Wind SpeedMPH,Gust SpeedMPH,PrecipitationIn,Events,Conditions,WindDirDegrees,DateUTC
12:56 AM,28.0,19.0,69,30.14,10.0,West,12.7,-,N/A,,Overcast,280,2013-01-01 07:56:00
1:56 AM,27.0,19.0,72,30.14,10.0,West,12.7,-,N/A,,Overcast,260,2013-01-01 08:56:00
2:56 AM,26.6,17.6,69,30.03,10.0,West,17.3,-,N/A,,Scattered Clouds,260,2013-01-01 09:56:00
3:56 AM,25.0,17.1,72,30.12,10.0,WSW,20.7,27.6,N/A,,Clear,250,2013-01-01 10:56:00
4:56 AM,26.1,17.1,69,30.10,10.0,WSW,23.0,-,N/A,,Clear,250,2013-01-01 11:56:00
5:56 AM,27.0,17.1,66,30.10,10.0,WSW,26.5,32.2,N/A,,Clear,250,2013-01-01 12:56:00
6:56 AM,26.1,17.1,69,30.15,10.0,West,25.3,31.1,N/A,,Overcast,270,2013-01-01 13:56:00
7:56 AM,23.0,15.1,72,30.18,10.0,WNW,24.2,-,N/A,,Clear,290,2013-01-01 14:56:00
8:34 AM,26.6,17.6,69,30.10,10.0,NW,24.2,34.5,N/A,,Mostly Cloudy,320,2013-01-01 15:34:00
8:50 AM,26.6,23.0,86,30.11,1.8,NNW,29.9,36.8,0.00,Snow,Light Snow,330,2013-01-01 15:50:00
8:56 AM,27.0,24.1,89,30.25,1.2,NNW,24.2,36.8,0.00,Snow,Light Snow,330,2013-01-01 15:56:00
9:08 AM,28.4,23.0,80,30.13,2.5,NW,21.9,-,0.00,Snow,Light Snow,320,2013-01-01 16:08:00
9:15 AM,28.4,23.0,80,30.14,6.0,NNW,19.6,-,0.00,Snow,Light Snow,330,2013-01-01 16:15:00
9:56 AM,28.9,21.0,72,30.29,10.0,NW,13.8,-,0.00,,Scattered Clouds,310,2013-01-01 16:56:00
10:56 AM,28.9,19.9,69,30.30,10.0,WNW,11.5,-,N/A,,Partly Cloudy,300,2013-01-01 17:56:00
11:56 AM,30.0,19.9,66,30.29,10.0,West,9.2,-,N/A,,Clear,280,2013-01-01 18:56:00
12:56 PM,30.0,19.0,64,30.29,10.0,West,13.8,-,N/A,,Clear,270,2013-01-01 19:56:00
1:56 PM,28.0,17.1,63,30.28,10.0,West,23.0,-,N/A,,Clear,260,2013-01-01 20:56:00
2:56 PM,27.0,15.1,61,30.31,10.0,WSW,19.6,-,N/A,,Clear,250,2013-01-01 21:56:00
3:56 PM,25.0,14.0,63,30.34,10.0,West,23.0,-,N/A,,Clear,260,2013-01-01 22:56:00
4:56 PM,21.9,10.9,63,30.36,10.0,West,12.7,-,N/A,,Clear,270,2013-01-01 23:56:00
5:56 PM,19.0,10.0,68,30.37,10.0,West,11.5,-,N/A,,Clear,280,2013-01-02 00:56:00
6:56 PM,17.1,10.0,74,30.37,10.0,WNW,12.7,-,N/A,,Clear,290,2013-01-02 01:56:00
7:56 PM,18.0,10.0,71,30.38,10.0,West,15.0,-,N/A,,Clear,280,2013-01-02 02:56:00
8:56 PM,17.1,9.0,71,30.38,10.0,WSW,8.1,-,N/A,,Clear,250,2013-01-02 03:56:00
9:56 PM,16.0,9.0,74,30.38,10.0,WSW,8.1,-,N/A,,Clear,240,2013-01-02 04:56:00
10:56 PM,18.0,9.0,68,30.37,10.0,West,13.8,-,N/A,,Clear,280,2013-01-02 05:56:00
11:56 PM,19.0,10.0,68,30.37,10.0,WSW,16.1,-,N/A,,Clear,250,2013-01-02 06:56:00